Overview Statistics Trail Chart Weather Telemetry Raw packets
 

This is the latest recevied telemetry packets stored in our database for station/object OE1MBW-20. If no packets are shown the sender has not sent any telemetry packets the latest 10 day(s).

Telemetry packets is used to share measurements like repeteater parameters, battery voltage, radiation readings (or any other measurements).

<< 1 2 3 4 >>
Time Press* Temp.in* Hum* eGAS* Temp.out*
1788596009 997.4 hPa 26.3 C deg 40 % 493 - 20.7 C deg
1788594179 997.7 hPa 26 C deg 39.7 % 522 - 19.8 C deg
1788592346 997.3 hPa 25.9 C deg 39.3 % 547 - 19.6 C deg
1788590530 997.3 hPa 25.5 C deg 39.9 % 586 - 19.6 C deg
1788579536 993.1 hPa 26.9 C deg 46.6 % 441 - 21.5 C deg
1788559404 989.5 hPa 26.1 C deg 45.1 % 423 - 21.6 C deg
1788557576 989.3 hPa 27.6 C deg 42.5 % 361 - 21.6 C deg
1788553918 989.3 hPa 28.7 C deg 39.3 % 337 - 23.2 C deg
1788552085 989.4 hPa 28.9 C deg 39.3 % 304 - 23.9 C deg
1788497181 995.9 hPa 27.1 C deg 40 % 455 - 22.6 C deg
1788491696 995.7 hPa 26.8 C deg 40.4 % 514 - 22.5 C deg
1788460603 995.6 hPa 28.2 C deg 35.8 % 398 - 24.2 C deg
1788456923 995.1 hPa 29.2 C deg 37.4 % 266 - 25.2 C deg
1788425819 997.3 hPa 27.9 C deg 39.5 % 324 - 27.3 C deg
1788422151 997.2 hPa 27.2 C deg 41.3 % 373 - 26.3 C deg
1788418491 997.2 hPa 26.1 C deg 42.5 % 453 - 23.6 C deg
1788414827 997.2 hPa 24.9 C deg 44.8 % 409 - 20.8 C deg
1788411168 996.8 hPa 23.7 C deg 44.5 % 482 - 19.8 C deg
1788405685 996.4 hPa 24.4 C deg 43.3 % 558 - 19.8 C deg
1788403866 996.5 hPa 24.9 C deg 41 % 553 - 20.1 C deg
1788402038 996.3 hPa 26 C deg 38.6 % 514 - 20.1 C deg
1788400210 996.4 hPa 26.6 C deg 37 % 476 - 20.6 C deg
1788394706 996.5 hPa 26.8 C deg 36.4 % 454 - 22.2 C deg
1788391040 996.5 hPa 27.1 C deg 36.1 % 440 - 22.2 C deg
1788345287 997.5 hPa 31.2 C deg 34.6 % 239 - 50.2 C deg
*Used Equation Coefficients:
Press: 0, 1, 0
Temp.in: 0, 1, 0
Hum: 0, 1, 0
eGAS: 0, 1, 0
Temp.out: 0, 1, 0

  • The parameter names for the analog channels will be Value1, Value2, Value3 (up to Value5) if station has not sent a PARAM-packet that specifies the parameter names for each analog channel.
  • Each analog value is a decimal number between 000 and 255 (according to APRS specifications). The receiver use the telemetry equation coefficientsto to restore the original sensor values. If no EQNS-packet with equation coefficients is sent we will show the values as is (this corresponds to the equation coefficients a=0, b=1 and c=0).
    The sent equation coefficients is used in the equation: a * value2 + b * value + c.
  • The units for the analog values will not be shown if station has not sent a UNIT-packet specifying what unit's to use.
  • The parameter names for the digital bits will be Bit1, Bit2, Bit3 (up to Bit8) if station has not sent a PARAM-packet that specifies the parameter names for each digital bit.
  • All bit labels will be named "On" if station has not sent a UNIT-packet that specifies the label of each bit.
  • A bit is considered to be On when the bit is 1 if station has not sent a BITS-packet that specifies another "Bit sense" (a BITS-packet specify the state of the bits that match the BIT labels)